CheckWX is a tool to help pilots better visualize weather data.  It is not intended as a substitute for an official pre-flight weather briefing.

21:39:14 UTC

KCSG TAF
Columbus Airport
Columbus, Georgia, USA
KCSG 201734Z 2018/2118 04005KT P6SM SKC FM210000 00000KT P6SM SKC FM211100 VRB03KT P6SM SCT150 FM211400 28007KT P6SM FEW200 FM211700 31011KT P6SM FEW250

Mar-20@
18:00 UTC

Mar-20 @ 18:00 UTC

Mar-21@
00:00 UTC

Mar-21 @ 00:00 UTC

KCSG 201734Z 2018/2118 04005KT P6SM SKC
Wind
  • 040° at 5 KTS
Cloud Levels
  • Clear skies

Mar-21@
00:00 UTC

Mar-21 @ 00:00 UTC

Mar-21@
11:00 UTC

Mar-21 @ 11:00 UTC

FM210000 00000KT P6SM SKC

From

From Standard forecast or significant change

Cloud Levels
  • Clear skies

Mar-21@
11:00 UTC

Mar-21 @ 11:00 UTC

Mar-21@
14:00 UTC

Mar-21 @ 14:00 UTC

FM211100 VRB03KT P6SM SCT150

From

From Standard forecast or significant change

Wind
  • Variable at 3 KTS
Cloud Levels
  • Scattered at 15,000' AGL

Mar-21@
14:00 UTC

Mar-21 @ 14:00 UTC

Mar-21@
17:00 UTC

Mar-21 @ 17:00 UTC

FM211400 28007KT P6SM FEW200

From

From Standard forecast or significant change

Wind
  • 280° at 7 KTS
Cloud Levels
  • Few at 20,000' AGL

Mar-21@
17:00 UTC

Mar-21 @ 17:00 UTC

Mar-21@
18:00 UTC

Mar-21 @ 18:00 UTC

FM211700 31011KT P6SM FEW250

From

From Standard forecast or significant change

Wind
  • 310° at 11 KTS
Cloud Levels
  • Few at 25,000' AGL